الصفحة الرئيسية
METAR-TAF:

METAR-TAF

مطار :

بورت أوف سبين, ترينيداد, ترينيداد وتوباغو

دائرة عرض: 10-37N, خط طول: 061-21W, ارتفاع: 12 متر

مراقبة الطقس الحالي

تاريخ ووقت الإصدار 55 دقيقة قبل الساعة 15:00UTC
ريح 9 عقدة من الشرق
درجة الحرارة 27°درجة مئوية
الرطوبة 70%
ضغط 1017 hPa
الرؤية: 7000 متر
غيوم مفككة على ارتفاع 1800 قدم
زخات من الأمطار الخفيفة

METAR: TTPP 231500Z 08009KT 7000 -SHRA BKN018 27/21 Q1017 RMK SHWR TO N

زمن: 11:55 (15:55 UTC)

توقعات

تاريخ ووقت الإصدار 11ساعات و 55 دقيقة قبل الساعة 04:00UTC
التوقعات صالحة من23 الساعة 06 UTC إلى 24 الساعة 06 UTC
ريح 5 عقدة من الشرق
الرؤية 10 كم أو أكثر
غيوم قليلة على ارتفاع 1800 قدم
غيوم متفرقة على ارتفاع 3800 قدم
مؤقت
من 23 الساعة 06 UTC إلى 23 الساعة 11 UTC
الرؤية: 9000 متر
غيوم متفرقة على ارتفاع 1500 قدم
غيوم مفككة على ارتفاع 3800 قدم
أصبح
من 23 الساعة 12 UTC إلى 23 الساعة 14 UTC
ريح 12 عقدة من الشرق

TAF: TTPP 230400Z 2306/2406 10005KT 9999 FEW018 SCT038 TEMPO 2306/2311 9000 SHRA/VCSH SCT015 BKN038 BECMG 2312/2314 10012KT

أرصاد الطقس والتوقعات من أكثر من 4000 مطار (تقارير الطقس للمطار METAR والتنبؤ بالطقس بالمطارTAF).

المحطات المتاحة هي النقط الصفراء والحمراء على الخريطة.

حرك المؤشر فوق النقطة لمعرفة اسم المحطة.

ثم انقر لمعرفة أرصاد وتوقعات الطقس.

لتغيير الخارطة: اضغط على الأزرار الخضراء مع رمز الصليب الأسود للتكبير. على الزر الأخضر مع شرطة للتصغير، أو على الأسهم الخضراء للخرائط المجاورة.


METAR-TAF: